Terminal Aerodrome Forecast
Issued by NWS

Current Version | Previous Version | Graphics & Text | Print | Product List | Glossary On
Versions: 1 2 3 4 5 6 7 8 9 10 11 12 13 14 15 16 17 18 19 20 21 22 23 24 25 26 27 28
000
FTUS41 KRLX 202332
TAFCKB
TAF
KCKB 202332Z 2100/2124 20005KT P6SM FEW250
     FM211500 21006KT P6SM BKN040
     FM211800 23009G18KT P6SM BKN045
     FM211900 28010G19KT P6SM BKN025
     FM212100 28009G15KT 4SM SHRA BKN012=

USA.gov is the U.S. government's official web portal to all federal, state and local government web resources and services.